createdAt,value
2023-04-20T00:00:04.085Z,23.21
2023-04-20T00:01:04.078Z,23.21
2023-04-20T00:02:04.152Z,23.22
2023-04-20T00:03:04.244Z,23.21
2023-04-20T00:04:04.211Z,23.22
2023-04-20T00:05:04.080Z,23.22
2023-04-20T00:06:04.043Z,23.21
2023-04-20T00:07:04.028Z,23.22
2023-04-20T00:08:04.006Z,23.22
2023-04-20T00:09:04.030Z,23.22
2023-04-20T00:10:04.017Z,23.21
2023-04-20T00:11:04.077Z,23.22
2023-04-20T00:12:03.999Z,23.22
2023-04-20T00:13:03.960Z,23.22
2023-04-20T00:14:03.954Z,23.22
2023-04-20T00:15:03.972Z,23.22
2023-04-20T00:16:03.962Z,23.22
2023-04-20T00:17:04.103Z,23.22
2023-04-20T00:18:03.994Z,23.22
2023-04-20T00:19:03.954Z,23.22
2023-04-20T00:20:03.967Z,23.22
2023-04-20T00:21:03.985Z,23.22
2023-04-20T00:22:03.934Z,23.22
2023-04-20T00:23:03.943Z,23.22
2023-04-20T00:24:03.891Z,23.22
2023-04-20T00:25:03.918Z,23.21
2023-04-20T00:26:03.887Z,23.22
2023-04-20T00:27:03.872Z,23.21
2023-04-20T00:28:03.900Z,23.22
2023-04-20T00:29:03.876Z,23.22
2023-04-20T00:30:03.896Z,23.22
2023-04-20T00:31:03.905Z,23.21
2023-04-20T00:32:03.832Z,23.22
2023-04-20T00:33:03.959Z,23.22
2023-04-20T00:34:03.821Z,23.22
2023-04-20T00:35:03.836Z,23.22
2023-04-20T00:36:03.830Z,23.22
2023-04-20T00:37:03.808Z,23.23
2023-04-20T00:38:03.777Z,23.22
2023-04-20T00:39:03.794Z,23.23
2023-04-20T00:40:03.808Z,23.22
2023-04-20T00:41:03.757Z,23.22
2023-04-20T00:42:03.777Z,23.22
2023-04-20T00:43:03.754Z,23.22
2023-04-20T00:44:03.777Z,23.22
2023-04-20T00:45:03.732Z,23.21
2023-04-20T00:46:03.773Z,23.22
2023-04-20T00:47:03.752Z,23.21
2023-04-20T00:48:03.780Z,23.22
2023-04-20T00:49:03.697Z,23.21
2023-04-20T00:50:03.745Z,23.21
2023-04-20T00:51:03.722Z,23.20
2023-04-20T00:52:03.725Z,23.21
2023-04-20T00:53:03.686Z,23.21
2023-04-20T00:54:03.704Z,23.20
2023-04-20T00:55:03.658Z,23.20
2023-04-20T00:56:03.661Z,23.20
2023-04-20T00:57:03.651Z,23.21
2023-04-20T00:58:03.647Z,23.20
2023-04-20T00:59:03.627Z,23.21
2023-04-20T01:00:03.625Z,23.21
2023-04-20T01:01:03.629Z,23.21
2023-04-20T01:02:03.749Z,23.21
2023-04-20T01:03:03.747Z,23.20
2023-04-20T01:04:03.684Z,23.21
2023-04-20T01:05:03.636Z,23.20
2023-04-20T01:06:03.633Z,23.20
2023-04-20T01:07:03.638Z,23.20
2023-04-20T01:08:03.655Z,23.20
2023-04-20T01:09:03.607Z,23.19
2023-04-20T01:10:03.732Z,23.20
2023-04-20T01:11:03.642Z,23.20
2023-04-20T01:12:03.622Z,23.20
2023-04-20T01:13:03.632Z,23.21
2023-04-20T01:14:03.627Z,23.20
2023-04-20T01:15:03.611Z,23.21
2023-04-20T01:16:03.680Z,23.20
2023-04-20T01:17:03.657Z,23.20
2023-04-20T01:18:03.740Z,23.20
2023-04-20T01:19:03.648Z,23.20
2023-04-20T01:20:03.669Z,23.20
2023-04-20T01:21:03.651Z,23.20
2023-04-20T01:22:03.640Z,23.21
2023-04-20T01:23:03.633Z,23.20
2023-04-20T01:24:03.615Z,23.20
2023-04-20T01:25:03.622Z,23.20
2023-04-20T01:26:03.599Z,23.20
2023-04-20T01:27:03.590Z,23.21
2023-04-20T01:28:03.630Z,23.21
2023-04-20T01:29:03.609Z,23.21
2023-04-20T01:30:03.631Z,23.21
2023-04-20T01:31:03.669Z,23.21
2023-04-20T01:32:03.645Z,23.21
2023-04-20T01:33:03.654Z,23.20
2023-04-20T01:34:03.662Z,23.21
2023-04-20T01:35:03.641Z,23.21
2023-04-20T01:36:03.622Z,23.21
2023-04-20T01:37:03.642Z,23.21
2023-04-20T01:38:03.605Z,23.21
2023-04-20T01:39:03.630Z,23.21
2023-04-20T01:40:03.790Z,23.22
2023-04-20T01:41:03.692Z,23.20
2023-04-20T01:42:03.715Z,23.21
2023-04-20T01:43:03.706Z,23.21
2023-04-20T01:44:03.720Z,23.21
2023-04-20T01:45:03.725Z,23.22
2023-04-20T01:46:03.718Z,23.22
2023-04-20T01:47:03.852Z,23.21
2023-04-20T01:48:03.772Z,23.21
2023-04-20T01:49:03.756Z,23.22
2023-04-20T01:50:03.749Z,23.21
2023-04-20T01:51:03.894Z,23.22
2023-04-20T01:52:04.114Z,23.21
2023-04-20T01:53:04.053Z,23.21
2023-04-20T01:54:03.856Z,23.22
2023-04-20T01:55:03.955Z,23.22
2023-04-20T01:56:04.011Z,23.22
2023-04-20T01:57:04.055Z,23.23
2023-04-20T01:58:04.101Z,23.23
2023-04-20T01:59:04.145Z,23.25
2023-04-20T02:00:04.175Z,23.25
2023-04-20T02:01:04.237Z,23.26
2023-04-20T02:02:04.332Z,23.27
2023-04-20T02:03:04.370Z,23.30
2023-04-20T02:04:04.343Z,23.32
2023-04-20T02:05:04.386Z,23.34
2023-04-20T02:06:04.468Z,23.37
2023-04-20T02:07:04.533Z,23.39
2023-04-20T02:08:04.578Z,23.43
2023-04-20T02:09:04.665Z,23.47
2023-04-20T02:10:04.699Z,23.50
2023-04-20T02:11:04.791Z,23.54
2023-04-20T02:12:04.798Z,23.57
2023-04-20T02:13:04.880Z,23.61
2023-04-20T02:14:04.932Z,23.63
2023-04-20T02:15:04.937Z,23.66
2023-04-20T02:16:04.973Z,23.70
2023-04-20T02:17:05.076Z,23.72
2023-04-20T02:18:05.059Z,23.75
2023-04-20T02:19:05.120Z,23.78
2023-04-20T02:20:05.162Z,23.79
2023-04-20T02:21:05.204Z,23.81
2023-04-20T02:22:05.226Z,23.83
2023-04-20T02:23:05.233Z,23.86
2023-04-20T02:24:05.254Z,23.86
2023-04-20T02:25:05.300Z,23.89
2023-04-20T02:26:05.335Z,23.89
2023-04-20T02:27:05.332Z,23.91
2023-04-20T02:28:05.395Z,23.94
2023-04-20T02:29:05.410Z,23.96
2023-04-20T02:30:05.453Z,23.97
2023-04-20T02:31:10.684Z,23.99
2023-04-20T02:32:05.416Z,24.01
2023-04-20T02:33:05.487Z,24.02
2023-04-20T02:34:05.466Z,24.03
2023-04-20T02:35:05.468Z,24.04
2023-04-20T02:36:05.413Z,24.05
2023-04-20T02:37:05.439Z,24.06
2023-04-20T02:38:05.404Z,24.07
2023-04-20T02:39:05.416Z,24.08
2023-04-20T02:40:05.400Z,24.09
2023-04-20T02:41:05.429Z,24.10
2023-04-20T02:42:05.375Z,24.12
2023-04-20T02:43:05.355Z,24.13
2023-04-20T02:44:05.355Z,24.14
2023-04-20T02:45:05.349Z,24.16
2023-04-20T02:46:05.401Z,24.16
2023-04-20T02:47:05.413Z,24.17
2023-04-20T02:48:05.359Z,24.17
2023-04-20T02:49:05.391Z,24.17
2023-04-20T02:50:05.410Z,24.19
2023-04-20T02:51:05.405Z,24.19
2023-04-20T02:52:05.427Z,24.20
2023-04-20T02:53:05.423Z,24.20
2023-04-20T02:54:05.395Z,24.21
2023-04-20T02:55:05.408Z,24.21
2023-04-20T02:56:05.426Z,24.22
2023-04-20T02:57:05.431Z,24.23
2023-04-20T02:58:05.426Z,24.24
2023-04-20T02:59:05.458Z,24.24
2023-04-20T03:00:05.522Z,24.26
2023-04-20T03:01:05.422Z,24.26
2023-04-20T03:02:05.471Z,24.27
2023-04-20T03:03:05.524Z,24.27
2023-04-20T03:04:05.565Z,24.27
2023-04-20T03:05:05.421Z,24.27
2023-04-20T03:06:05.408Z,24.27
2023-04-20T03:07:05.506Z,24.28
2023-04-20T03:08:05.392Z,24.28
2023-04-20T03:09:05.405Z,24.29
2023-04-20T03:10:05.391Z,24.30
2023-04-20T03:11:05.410Z,24.30
2023-04-20T03:12:05.419Z,24.30
2023-04-20T03:13:05.371Z,24.31
2023-04-20T03:14:05.367Z,24.32
2023-04-20T03:15:05.379Z,24.32
2023-04-20T03:16:05.409Z,24.33
2023-04-20T03:17:05.369Z,24.33
2023-04-20T03:18:05.420Z,24.33
2023-04-20T03:19:05.432Z,24.34
2023-04-20T03:20:05.381Z,24.35
2023-04-20T03:21:05.385Z,24.34
2023-04-20T03:22:05.463Z,24.35
2023-04-20T03:23:05.450Z,24.36
2023-04-20T03:24:05.489Z,24.36
2023-04-20T03:25:05.515Z,24.36
2023-04-20T03:26:05.542Z,24.36
2023-04-20T03:27:05.567Z,24.37
2023-04-20T03:28:05.550Z,24.37
2023-04-20T03:29:05.564Z,24.37
2023-04-20T03:30:05.606Z,24.38
2023-04-20T03:31:05.594Z,24.39
2023-04-20T03:32:05.697Z,24.39
2023-04-20T03:33:05.785Z,24.39
2023-04-20T03:34:05.701Z,24.40
2023-04-20T03:35:05.721Z,24.40
2023-04-20T03:36:05.744Z,24.41
2023-04-20T03:37:05.795Z,24.41
2023-04-20T03:38:05.851Z,24.41
2023-04-20T03:39:05.846Z,24.42
2023-04-20T03:40:05.916Z,24.43
2023-04-20T03:41:05.944Z,24.43
2023-04-20T03:42:06.015Z,24.44
2023-04-20T03:43:06.064Z,24.45
2023-04-20T03:44:06.090Z,24.46
2023-04-20T03:45:06.113Z,24.46
2023-04-20T03:46:06.341Z,24.46
2023-04-20T03:47:06.235Z,24.46
2023-04-20T03:48:06.304Z,24.47
2023-04-20T03:49:06.341Z,24.47
2023-04-20T03:50:06.424Z,24.47
2023-04-20T03:51:06.484Z,24.47
2023-04-20T03:52:06.543Z,24.47
2023-04-20T03:53:06.571Z,24.47
2023-04-20T03:54:06.640Z,24.49
2023-04-20T03:55:06.680Z,24.48
2023-04-20T03:56:06.696Z,24.49
2023-04-20T03:57:06.787Z,24.49
2023-04-20T03:58:06.936Z,24.50
2023-04-20T03:59:06.904Z,24.50
2023-04-20T04:00:06.965Z,24.50
2023-04-20T04:01:07.072Z,24.50
2023-04-20T04:02:07.137Z,24.51
2023-04-20T04:03:07.375Z,24.51
2023-04-20T04:04:07.638Z,24.52
2023-04-20T04:05:07.372Z,24.52
2023-04-20T04:06:07.382Z,24.51
2023-04-20T04:07:07.426Z,24.52
2023-04-20T04:08:07.491Z,24.52
2023-04-20T04:09:07.512Z,24.52
2023-04-20T04:10:07.613Z,24.53
2023-04-20T04:11:07.678Z,24.54
2023-04-20T04:12:07.744Z,24.54
2023-04-20T04:13:07.804Z,24.55
2023-04-20T04:14:08.390Z,24.54
2023-04-20T04:15:08.098Z,24.55
2023-04-20T04:16:07.942Z,24.55
2023-04-20T04:17:08.124Z,24.55
2023-04-20T04:18:08.071Z,24.55
2023-04-20T04:19:08.089Z,24.55
2023-04-20T04:20:08.138Z,24.56
2023-04-20T04:21:08.144Z,24.56
2023-04-20T04:22:08.223Z,24.58
2023-04-20T04:23:08.310Z,24.58
2023-04-20T04:24:08.357Z,24.57
2023-04-20T04:25:08.408Z,24.57
2023-04-20T04:26:08.478Z,24.58
2023-04-20T04:27:08.529Z,24.58
2023-04-20T04:28:08.588Z,24.59
2023-04-20T04:29:08.629Z,24.59
2023-04-20T04:30:09.658Z,24.59
2023-04-20T04:31:08.779Z,24.59
2023-04-20T04:32:08.826Z,24.60
2023-04-20T04:33:08.898Z,24.59
2023-04-20T04:34:08.950Z,24.59
2023-04-20T04:35:09.062Z,24.60
2023-04-20T04:36:09.051Z,24.60
2023-04-20T04:37:09.131Z,24.61
2023-04-20T04:38:09.188Z,24.60
2023-04-20T04:39:09.259Z,24.60
2023-04-20T04:40:09.314Z,24.60
2023-04-20T04:41:09.353Z,24.61
2023-04-20T04:42:09.429Z,24.60
2023-04-20T04:43:09.468Z,24.60
2023-04-20T04:44:09.542Z,24.60
2023-04-20T04:45:09.605Z,24.60
2023-04-20T04:46:09.705Z,24.60
2023-04-20T04:47:09.683Z,24.60
2023-04-20T04:48:09.774Z,24.60
2023-04-20T04:49:09.802Z,24.60
2023-04-20T04:50:09.875Z,24.60
2023-04-20T04:51:09.981Z,24.60
2023-04-20T04:52:09.989Z,24.60
2023-04-20T04:53:10.049Z,24.60
2023-04-20T04:54:10.120Z,24.60
2023-04-20T04:55:10.181Z,24.60
2023-04-20T04:56:10.228Z,24.60
2023-04-20T04:57:10.328Z,24.60
2023-04-20T04:58:10.358Z,24.60
2023-04-20T04:59:10.437Z,24.60
2023-04-20T05:00:10.486Z,24.60
2023-04-20T05:01:17.526Z,24.60
2023-04-20T05:02:10.679Z,24.60
2023-04-20T05:03:10.576Z,24.60
2023-04-20T05:04:10.722Z,24.59
2023-04-20T05:05:10.505Z,24.59
2023-04-20T05:06:10.493Z,24.59
2023-04-20T05:07:10.511Z,24.58
2023-04-20T05:08:10.491Z,24.59
2023-04-20T05:09:10.470Z,24.58
2023-04-20T05:10:10.483Z,24.57
2023-04-20T05:11:10.476Z,24.58
2023-04-20T05:12:10.428Z,24.58
2023-04-20T05:13:10.439Z,24.58
2023-04-20T05:14:10.460Z,24.58
2023-04-20T05:15:10.478Z,24.58
2023-04-20T05:16:10.525Z,24.58
2023-04-20T05:17:10.429Z,24.58
2023-04-20T05:18:10.373Z,24.58
2023-04-20T05:19:10.434Z,24.57
2023-04-20T05:20:10.384Z,24.58
2023-04-20T05:21:10.357Z,24.58
2023-04-20T05:22:10.357Z,24.57
2023-04-20T05:23:10.406Z,24.57
2023-04-20T05:24:10.467Z,24.58
2023-04-20T05:25:12.636Z,24.57
2023-04-20T05:26:10.521Z,24.57
2023-04-20T05:27:10.476Z,24.57
2023-04-20T05:28:10.471Z,24.58
2023-04-20T05:29:10.491Z,24.57
2023-04-20T05:30:20.191Z,24.57
2023-04-20T05:31:11.482Z,24.55
2023-04-20T05:32:10.813Z,24.49
2023-04-20T05:33:10.496Z,24.44
2023-04-20T05:34:10.418Z,24.40
2023-04-20T05:35:10.416Z,24.35
2023-04-20T05:36:10.430Z,24.29
2023-04-20T05:37:10.751Z,24.26
2023-04-20T05:38:10.407Z,24.21
2023-04-20T05:39:10.383Z,24.20
2023-04-20T05:40:10.433Z,24.19
2023-04-20T05:41:10.453Z,24.16
2023-04-20T05:42:10.402Z,24.15
2023-04-20T05:43:10.698Z,24.15
2023-04-20T05:44:10.359Z,24.12
2023-04-20T05:46:29.446Z,24.11
2023-04-20T05:47:29.572Z,24.20
2023-04-20T05:48:30.139Z,24.31
2023-04-20T05:49:29.243Z,24.39
2023-04-20T05:50:29.205Z,24.47
2023-04-20T05:51:29.252Z,24.53
2023-04-20T05:52:29.213Z,24.57
2023-04-20T05:53:29.169Z,24.61
2023-04-20T05:54:29.178Z,24.64
2023-04-20T05:55:29.169Z,24.67
2023-04-20T05:56:29.164Z,24.69
2023-04-20T05:57:29.160Z,24.72
2023-04-20T05:58:29.129Z,24.74
2023-04-20T05:59:29.125Z,24.75
2023-04-20T06:00:29.206Z,24.77
2023-04-20T06:01:29.114Z,24.79
2023-04-20T06:02:29.256Z,24.80
2023-04-20T06:03:29.251Z,24.81
2023-04-20T06:04:29.283Z,24.81
2023-04-20T06:05:29.199Z,24.82
2023-04-20T06:06:29.929Z,24.83
2023-04-20T06:07:29.093Z,24.84
2023-04-20T06:08:29.122Z,24.85
2023-04-20T06:09:29.053Z,24.85
2023-04-20T06:10:29.221Z,24.85
2023-04-20T06:11:31.022Z,24.84
2023-04-20T06:12:29.040Z,24.85
2023-04-20T06:13:29.059Z,24.86
2023-04-20T06:14:29.066Z,24.87
2023-04-20T06:15:29.148Z,24.87
2023-04-20T06:16:29.104Z,24.87
2023-04-20T06:17:29.078Z,24.88
2023-04-20T06:18:29.046Z,24.88
2023-04-20T06:19:29.039Z,24.88
2023-04-20T06:20:29.031Z,24.89
2023-04-20T06:21:29.031Z,24.89
2023-04-20T06:22:29.019Z,24.88
2023-04-20T06:23:28.999Z,24.87
2023-04-20T06:24:29.045Z,24.87
2023-04-20T06:25:28.993Z,24.86
2023-04-20T06:26:29.056Z,24.86
2023-04-20T06:27:28.904Z,24.88
2023-04-20T06:28:29.464Z,24.86
2023-04-20T06:29:28.993Z,24.83
2023-04-20T06:30:29.045Z,24.83
2023-04-20T06:31:29.073Z,24.84
2023-04-20T06:32:29.092Z,24.83
2023-04-20T06:33:29.433Z,24.84
2023-04-20T06:34:29.198Z,24.85
2023-04-20T06:35:29.198Z,24.84
2023-04-20T06:36:29.232Z,24.83
2023-04-20T06:37:29.319Z,24.79
2023-04-20T06:38:29.377Z,24.74
2023-04-20T06:39:29.541Z,24.68
2023-04-20T06:40:29.486Z,24.63
2023-04-20T06:41:29.489Z,24.63
2023-04-20T06:42:29.616Z,24.69
2023-04-20T06:43:29.943Z,24.76
2023-04-20T06:44:29.633Z,24.82
2023-04-20T06:45:29.999Z,24.86
2023-04-20T06:46:29.718Z,24.91
2023-04-20T06:47:29.730Z,24.93
2023-04-20T06:48:32.575Z,24.95
2023-04-20T06:49:29.675Z,24.96
2023-04-20T06:50:29.654Z,24.98
2023-04-20T06:51:29.658Z,24.99
2023-04-20T06:52:29.680Z,25.00
2023-04-20T06:53:29.923Z,25.01
2023-04-20T06:54:29.639Z,25.02
2023-04-20T06:55:29.645Z,25.03
2023-04-20T06:56:29.618Z,25.04
2023-04-20T06:57:29.651Z,25.05
2023-04-20T06:58:29.624Z,25.05
2023-04-20T06:59:29.615Z,25.06
2023-04-20T07:00:29.626Z,25.07
2023-04-20T07:01:29.590Z,25.08
2023-04-20T07:02:29.652Z,25.10
2023-04-20T07:03:29.773Z,25.10
2023-04-20T07:04:29.590Z,25.11
2023-04-20T07:05:29.562Z,25.11
2023-04-20T07:06:29.580Z,25.11
2023-04-20T07:07:29.567Z,25.11
2023-04-20T07:08:29.575Z,25.11
2023-04-20T07:09:29.532Z,25.11
2023-04-20T07:10:29.543Z,25.11
2023-04-20T07:11:29.508Z,25.11
2023-04-20T07:12:29.500Z,25.12
2023-04-20T07:13:33.351Z,25.12
2023-04-20T07:14:29.524Z,25.11
2023-04-20T07:15:29.532Z,25.12
2023-04-20T07:16:29.523Z,25.13
2023-04-20T07:17:29.617Z,25.14
2023-04-20T07:18:29.504Z,25.15
2023-04-20T07:19:29.502Z,25.15
2023-04-20T07:20:29.462Z,25.16
2023-04-20T07:21:29.464Z,25.17
2023-04-20T07:22:29.473Z,25.18
2023-04-20T07:23:29.433Z,25.17
2023-04-20T07:24:29.443Z,25.18
2023-04-20T07:25:29.440Z,25.18
2023-04-20T07:26:29.928Z,25.18
2023-04-20T07:27:29.474Z,25.18
2023-04-20T07:28:29.406Z,25.19
2023-04-20T07:29:29.424Z,25.19
2023-04-20T07:30:29.376Z,25.21
2023-04-20T07:31:29.367Z,25.23
2023-04-20T07:32:29.380Z,25.23
2023-04-20T07:33:29.459Z,25.14
2023-04-20T07:34:29.348Z,24.98
2023-04-20T07:35:29.369Z,24.84
2023-04-20T07:36:29.379Z,24.81
2023-04-20T07:37:29.478Z,24.72
2023-04-20T07:38:29.458Z,24.47
2023-04-20T07:39:29.470Z,24.31
2023-04-20T07:40:29.549Z,24.00
2023-04-20T07:41:29.574Z,23.34
2023-04-20T07:42:29.808Z,22.92
2023-04-20T07:43:29.774Z,22.70
2023-04-20T07:44:29.672Z,22.66
2023-04-20T07:45:29.811Z,22.70
2023-04-20T07:46:29.812Z,22.78
2023-04-20T07:47:29.826Z,22.89
2023-04-20T07:48:29.833Z,22.99
2023-04-20T07:49:29.932Z,23.10
2023-04-20T07:50:29.870Z,23.19
2023-04-20T07:51:29.874Z,23.27
2023-04-20T07:52:29.870Z,23.35
2023-04-20T07:53:29.993Z,23.44
2023-04-20T07:54:30.054Z,23.49
2023-04-20T07:55:30.012Z,23.56
2023-04-20T07:56:30.083Z,23.61
2023-04-20T07:57:30.140Z,23.65
2023-04-20T07:58:30.177Z,23.70
2023-04-20T07:59:30.288Z,23.73
2023-04-20T08:00:30.254Z,23.76
2023-04-20T08:01:30.302Z,23.78
2023-04-20T08:02:30.441Z,23.80
2023-04-20T08:03:30.524Z,23.81
2023-04-20T08:04:30.751Z,23.81
2023-04-20T08:05:30.601Z,23.83
2023-04-20T08:06:30.559Z,23.84
2023-04-20T08:07:30.499Z,23.86
2023-04-20T08:08:30.562Z,23.88
2023-04-20T08:09:31.498Z,23.89
2023-04-20T08:10:30.605Z,23.90
2023-04-20T08:11:30.607Z,23.90
2023-04-20T08:12:30.689Z,23.89
2023-04-20T08:13:30.741Z,23.90
2023-04-20T08:14:30.729Z,23.90
2023-04-20T08:15:31.584Z,23.91
2023-04-20T08:16:30.895Z,23.93
2023-04-20T08:17:30.887Z,23.94
2023-04-20T08:18:30.867Z,23.97
2023-04-20T08:19:30.897Z,24.00
2023-04-20T08:20:30.954Z,24.01
2023-04-20T08:21:30.946Z,24.02
2023-04-20T08:22:31.012Z,24.02
2023-04-20T08:23:31.014Z,24.04
2023-04-20T08:24:31.041Z,24.05
2023-04-20T08:25:31.045Z,24.09
2023-04-20T08:26:31.088Z,24.08
2023-04-20T08:27:31.099Z,24.10
2023-04-20T08:28:33.713Z,24.10
2023-04-20T08:29:31.101Z,24.11
2023-04-20T08:30:31.122Z,24.08
2023-04-20T08:31:31.133Z,24.08
2023-04-20T08:32:31.121Z,24.11
2023-04-20T08:33:31.468Z,24.12
2023-04-20T08:34:31.086Z,24.06
2023-04-20T08:35:31.046Z,23.70
2023-04-20T08:36:31.046Z,23.16
2023-04-20T08:37:32.913Z,22.66
2023-04-20T08:38:34.061Z,22.22
2023-04-20T08:39:31.040Z,21.85
2023-04-20T08:40:31.976Z,21.73
2023-04-20T08:41:31.024Z,21.75
2023-04-20T08:42:31.012Z,21.82
2023-04-20T08:43:31.014Z,21.90
2023-04-20T08:44:31.004Z,21.99
2023-04-20T08:45:30.970Z,22.07
2023-04-20T08:46:31.003Z,22.16
2023-04-20T08:47:31.071Z,22.25
2023-04-20T08:48:33.550Z,22.33
2023-04-20T08:49:30.960Z,22.39
2023-04-20T08:50:30.976Z,22.44
2023-04-20T08:51:30.978Z,22.36
2023-04-20T08:52:31.055Z,22.06
2023-04-20T08:53:30.938Z,21.72
2023-04-20T08:54:30.927Z,21.69
2023-04-20T08:55:30.940Z,21.73
2023-04-20T08:56:30.948Z,21.78
2023-04-20T08:57:30.902Z,21.86
2023-04-20T08:58:30.884Z,21.94
2023-04-20T08:59:31.006Z,22.00
2023-04-20T09:00:30.864Z,22.05
2023-04-20T09:01:35.706Z,22.09
2023-04-20T09:02:32.067Z,22.13
2023-04-20T09:03:31.137Z,22.18
2023-04-20T09:04:30.969Z,22.23
2023-04-20T09:05:30.913Z,22.26
2023-04-20T09:06:30.839Z,22.30
2023-04-20T09:07:30.823Z,22.33
2023-04-20T09:08:30.858Z,22.34
2023-04-20T09:09:30.845Z,22.33
2023-04-20T09:10:30.866Z,22.35
2023-04-20T09:11:30.944Z,22.36
2023-04-20T09:12:30.989Z,22.44
2023-04-20T09:13:31.037Z,22.52
2023-04-20T09:14:31.086Z,22.62
2023-04-20T09:15:31.059Z,22.73
2023-04-20T09:16:31.149Z,22.85
2023-04-20T09:17:31.183Z,22.99
2023-04-20T09:18:31.117Z,23.12
2023-04-20T09:19:31.224Z,23.26
2023-04-20T09:20:31.199Z,23.38
2023-04-20T09:21:31.260Z,23.49
2023-04-20T09:22:31.286Z,23.61
2023-04-20T09:23:31.298Z,23.72
2023-04-20T09:24:31.989Z,23.82
2023-04-20T09:25:31.284Z,23.91
2023-04-20T09:26:31.309Z,23.99
2023-04-20T09:27:31.420Z,24.05
2023-04-20T09:28:31.442Z,24.09
2023-04-20T09:29:31.523Z,24.15
2023-04-20T09:30:31.552Z,24.19
2023-04-20T09:31:31.703Z,24.23
2023-04-20T09:32:31.676Z,24.27
2023-04-20T09:33:31.734Z,24.33
2023-04-20T09:34:31.795Z,24.41
2023-04-20T09:35:31.896Z,24.47
2023-04-20T09:36:31.866Z,24.52
2023-04-20T09:37:31.892Z,24.59
2023-04-20T09:38:31.940Z,24.64
2023-04-20T09:39:31.929Z,24.68
2023-04-20T09:40:31.911Z,24.72
2023-04-20T09:41:31.977Z,24.71
2023-04-20T09:42:31.983Z,24.73
2023-04-20T09:43:32.012Z,24.76
2023-04-20T09:44:32.039Z,24.76
2023-04-20T09:45:32.148Z,24.78
2023-04-20T09:46:32.073Z,24.81
2023-04-20T09:47:32.177Z,24.68
2023-04-20T09:48:32.375Z,24.47
2023-04-20T09:49:32.156Z,24.26
2023-04-20T09:50:41.892Z,24.09
2023-04-20T09:51:33.164Z,24.02
2023-04-20T09:52:32.166Z,24.00
2023-04-20T09:53:32.189Z,24.02
2023-04-20T09:54:32.186Z,24.02
2023-04-20T09:55:32.217Z,24.02
2023-04-20T09:56:32.964Z,23.99
2023-04-20T09:57:32.133Z,23.95
2023-04-20T09:58:32.157Z,23.92
2023-04-20T09:59:32.140Z,23.85
2023-04-20T10:00:32.543Z,23.84
2023-04-20T10:01:32.209Z,23.83
2023-04-20T10:02:32.289Z,23.82
2023-04-20T10:03:32.310Z,23.83
2023-04-20T10:04:32.347Z,23.84
2023-04-20T10:05:32.288Z,23.83
2023-04-20T10:06:32.397Z,23.82
2023-04-20T10:07:32.402Z,23.75
2023-04-20T10:08:32.496Z,23.79
2023-04-20T10:09:32.555Z,23.80
2023-04-20T10:10:33.018Z,23.83
2023-04-20T10:11:41.205Z,23.84
2023-04-20T10:12:33.646Z,23.86
2023-04-20T10:13:32.652Z,23.90
2023-04-20T10:14:32.639Z,23.94
2023-04-20T10:15:33.618Z,23.97
2023-04-20T10:16:32.706Z,24.02
2023-04-20T10:17:32.693Z,24.07
2023-04-20T10:18:32.692Z,24.08
2023-04-20T10:19:33.569Z,24.11
2023-04-20T10:20:33.055Z,24.11
2023-04-20T10:21:32.563Z,24.12
2023-04-20T10:22:33.695Z,24.10
2023-04-20T10:23:32.533Z,24.11
2023-04-20T10:24:32.528Z,24.07
2023-04-20T10:25:32.536Z,24.07
2023-04-20T10:26:32.562Z,24.06
2023-04-20T10:27:32.538Z,24.11
2023-04-20T10:28:32.511Z,24.15
2023-04-20T10:29:34.458Z,24.18
2023-04-20T10:30:32.540Z,24.22
2023-04-20T10:31:32.644Z,24.20
2023-04-20T10:32:32.502Z,24.22
2023-04-20T10:33:32.516Z,24.25
2023-04-20T10:34:32.484Z,24.28
2023-04-20T10:35:32.572Z,24.32
2023-04-20T10:36:32.483Z,24.30
2023-04-20T10:37:32.520Z,24.21
2023-04-20T10:38:32.454Z,24.01
2023-04-20T10:39:32.435Z,23.80
2023-04-20T10:40:33.530Z,23.56
2023-04-20T10:41:32.516Z,23.23
2023-04-20T10:42:32.421Z,23.09
2023-04-20T10:43:32.427Z,22.89
2023-04-20T10:44:32.410Z,22.77
2023-04-20T10:45:32.540Z,22.78
2023-04-20T10:46:32.527Z,22.88
2023-04-20T10:47:32.455Z,23.00
2023-04-20T10:48:32.459Z,23.11
2023-04-20T10:49:32.420Z,23.25
2023-04-20T10:50:32.592Z,23.38
2023-04-20T10:51:32.328Z,23.49
2023-04-20T10:52:32.344Z,23.62
2023-04-20T10:53:32.324Z,23.75
2023-04-20T10:54:32.498Z,23.88
2023-04-20T10:55:32.358Z,23.99
2023-04-20T10:56:32.371Z,24.09
2023-04-20T10:57:32.326Z,24.18
2023-04-20T10:58:32.330Z,24.25
2023-04-20T10:59:32.279Z,24.32
2023-04-20T11:00:32.350Z,24.39
2023-04-20T11:01:32.314Z,24.45
2023-04-20T11:02:32.450Z,24.49
2023-04-20T11:03:32.333Z,24.55
2023-04-20T11:04:32.317Z,24.58
2023-04-20T11:05:32.272Z,24.62
2023-04-20T11:06:32.232Z,24.67
2023-04-20T11:07:32.250Z,24.71
2023-04-20T11:08:32.288Z,24.75
2023-04-20T11:09:32.238Z,24.79
2023-04-20T11:10:32.527Z,24.83
2023-04-20T11:11:32.231Z,24.86
2023-04-20T11:12:32.212Z,24.89
2023-04-20T11:13:32.369Z,24.91
2023-04-20T11:14:32.230Z,24.93
2023-04-20T11:15:32.248Z,24.97
2023-04-20T11:16:47.490Z,24.99
2023-04-20T11:17:33.368Z,25.00
2023-04-20T11:18:32.259Z,25.03
2023-04-20T11:19:32.258Z,25.05
2023-04-20T11:20:32.222Z,25.09
2023-04-20T11:21:32.193Z,25.07
2023-04-20T11:22:32.175Z,25.08
2023-04-20T11:23:32.191Z,25.10
2023-04-20T11:24:32.199Z,25.10
2023-04-20T11:25:32.248Z,25.07
2023-04-20T11:26:32.167Z,25.08
2023-04-20T11:27:32.143Z,25.11
2023-04-20T11:28:32.139Z,25.11
2023-04-20T11:29:32.127Z,25.09
2023-04-20T11:30:32.187Z,25.09
2023-04-20T11:31:32.656Z,25.03
2023-04-20T11:32:32.288Z,24.98
2023-04-20T11:33:32.173Z,24.89
2023-04-20T11:34:32.134Z,24.77
2023-04-20T11:35:32.192Z,24.69
2023-04-20T11:36:32.550Z,24.65
2023-04-20T11:37:32.247Z,24.65
2023-04-20T11:38:32.298Z,24.65
2023-04-20T11:39:32.337Z,24.66
2023-04-20T11:40:32.422Z,24.68
2023-04-20T11:41:32.449Z,24.70
2023-04-20T11:42:32.528Z,24.71
2023-04-20T11:43:32.639Z,24.73
2023-04-20T11:44:32.643Z,24.75
2023-04-20T11:45:35.043Z,24.77
2023-04-20T11:46:32.710Z,24.80
2023-04-20T11:47:32.751Z,24.83
2023-04-20T11:48:32.690Z,24.85
2023-04-20T11:49:32.706Z,24.86
2023-04-20T11:50:32.650Z,24.88
2023-04-20T11:51:32.691Z,24.88
2023-04-20T11:52:32.704Z,24.91
2023-04-20T11:53:32.658Z,24.91
2023-04-20T11:54:32.639Z,24.93
2023-04-20T11:55:32.623Z,24.95
2023-04-20T11:56:32.670Z,24.96
2023-04-20T11:57:32.664Z,24.97
2023-04-20T11:58:32.642Z,24.99
2023-04-20T11:59:32.647Z,24.99
2023-04-20T12:00:32.624Z,25.00
2023-04-20T12:01:32.615Z,25.01
2023-04-20T12:02:32.763Z,25.00
2023-04-20T12:03:32.794Z,25.02
2023-04-20T12:04:32.893Z,25.01
2023-04-20T12:05:32.571Z,25.01
2023-04-20T12:06:32.581Z,25.00
2023-04-20T12:07:32.602Z,25.00
2023-04-20T12:08:32.572Z,25.01
2023-04-20T12:09:32.535Z,25.02
2023-04-20T12:10:32.544Z,25.03
2023-04-20T12:11:32.564Z,25.05
2023-04-20T12:12:32.530Z,25.05
2023-04-20T12:13:32.533Z,25.06
2023-04-20T12:14:32.481Z,25.06
2023-04-20T12:15:32.564Z,25.06
2023-04-20T12:16:32.630Z,25.06
2023-04-20T12:17:32.531Z,25.07
2023-04-20T12:18:32.495Z,25.06
2023-04-20T12:19:32.465Z,25.05
2023-04-20T12:20:32.482Z,25.06
2023-04-20T12:21:32.480Z,25.05
2023-04-20T12:22:32.487Z,25.05
2023-04-20T12:23:32.499Z,25.06
2023-04-20T12:24:32.428Z,25.06
2023-04-20T12:25:32.437Z,25.06
2023-04-20T12:26:38.437Z,25.06
2023-04-20T12:27:33.449Z,25.06
2023-04-20T12:28:32.427Z,25.05
2023-04-20T12:29:32.485Z,25.06
2023-04-20T12:30:32.433Z,25.05
2023-04-20T12:31:32.514Z,25.05
2023-04-20T12:32:32.510Z,24.92
2023-04-20T12:33:32.448Z,24.80
2023-04-20T12:34:32.385Z,24.69
2023-04-20T12:35:32.410Z,24.61
2023-04-20T12:36:32.375Z,24.51
2023-04-20T12:37:32.372Z,24.47
2023-04-20T12:38:32.381Z,24.42
2023-04-20T12:39:32.367Z,24.36
2023-04-20T12:40:32.353Z,24.34
2023-04-20T12:41:32.418Z,24.29
2023-04-20T12:42:32.367Z,24.25
2023-04-20T12:43:32.390Z,24.23
2023-04-20T12:44:32.441Z,24.20
2023-04-20T12:45:32.441Z,24.21
2023-04-20T12:46:32.521Z,24.21
2023-04-20T12:47:32.487Z,24.21
2023-04-20T12:48:32.456Z,24.21
2023-04-20T12:49:33.750Z,24.22
2023-04-20T12:50:32.505Z,24.24
2023-04-20T12:51:32.499Z,24.25
2023-04-20T12:52:32.537Z,24.28
2023-04-20T12:53:32.518Z,24.30